Mac Dill Air Force Base
KMCF : rendu visible

Aérodrome :











RETROUVEZ-NOUS SUR...

 
LOGIN :

S'inscrire | Disclaimer

   EN    FR    IT 

 









Légende :    VFR   VFR Marginal   IFR   IFR Intensif   IFR Très Intensif
Visi : 
Plafond : 
>= 8 km
>= 3000ft
5 à 8 km
1000 à 3000 ft
1500m à 5 km
500 à 1000 ft
800 à 1500m
200 à 500 ft
< 800m
< 200 ft
Symboles :   Orages  Brouillard  Fortes neiges  Fortes précipitations  Vent > 20 kt






- Altitude de l'aérodrome : 14 ft


KMCF - Mac Dill Air Force Base

DERNIER METAR :
  • 011456Z AUTO 32007KT 10SM FEW190 20/11 A2988 RMK AO2 SLP121 T02020109 51015 FZRANO $

METARs EXPIRÉS :
  • 011356Z AUTO 36012KT 10SM CLR 19/11 A2987 RMK AO2 SLP118 T01910114 FZRANO $
  • 011256Z AUTO 02007KT 10SM OVC035 18/12 A2986 RMK AO2 SLP115 T01810116 FZRANO $

TAF TAF KMCF
Valide du 01 à 10h jusqu'au 02 à 16h UTC


011000Z 0110/0216 33018KT 9999 BKN024 510023 QNH2977INS
BECMG 0114/0115 35015KT 9999 SCT040 510033 QNH2985INS
BECMG 0203/0204 01006KT 9999 SKC QNH2994INS TX20/0120Z TN13/0211Z



MET'MAP, la Météo Aéronautique d'un coup d'oeil ! - Copyright ORBIFLY Décembre 2007 - Disclaimer

ORBIFLY MET'MAP TEAM :

Programmation & Développement : Alexandra Zaïnal
Sur une idée originale de : Baudouin d'Aumeries
Assistance à la programmation : Marc-Olivier Méhu
Soutien technique & logistique : Manuel Goepfert

Contact : metmap@orbifly.com




SOURCES & CREDITS :

   NOAA       Earth
Advisory